createdAt,value
2023-05-06T00:00:36.247Z,1.48
2023-05-06T00:03:04.974Z,1.63
2023-05-06T00:08:02.935Z,1.30
2023-05-06T00:10:31.380Z,1.48
2023-05-06T00:12:59.827Z,1.67
2023-05-06T00:15:30.122Z,1.70
2023-05-06T00:18:00.024Z,2.25
2023-05-06T00:20:28.887Z,1.23
2023-05-06T00:22:58.773Z,1.40
2023-05-06T00:25:27.210Z,1.60
2023-05-06T00:27:55.679Z,1.73
2023-05-06T00:30:25.739Z,1.65
2023-05-06T00:32:56.442Z,1.52
2023-05-06T00:35:25.001Z,1.30
2023-05-06T00:40:28.134Z,1.40
2023-05-06T00:42:56.579Z,1.20
2023-05-06T00:45:25.936Z,1.20
2023-05-06T00:47:54.790Z,1.02
2023-05-06T00:52:53.167Z,1.40
2023-05-06T00:55:23.290Z,1.13
2023-05-06T00:57:53.216Z,1.10
2023-05-06T01:00:22.559Z,0.95
2023-05-06T01:02:51.353Z,1.00
2023-05-06T01:05:22.393Z,1.20
2023-05-06T01:08:00.767Z,1.60
2023-05-06T01:10:38.804Z,1.05
2023-05-06T01:13:13.804Z,1.13
2023-05-06T01:15:46.734Z,0.85
2023-05-06T01:18:18.388Z,0.98
2023-05-06T01:20:49.870Z,1.20
2023-05-06T01:23:20.200Z,1.63
2023-05-06T01:25:48.768Z,1.20
2023-05-06T01:28:18.755Z,2.13
2023-05-06T01:30:56.110Z,1.05
2023-05-06T01:33:34.126Z,1.20
2023-05-06T01:36:14.308Z,0.93
2023-05-06T01:38:50.054Z,0.90
2023-05-06T01:41:19.276Z,1.17
2023-05-06T01:43:49.556Z,0.73
2023-05-06T01:46:21.105Z,1.20
2023-05-06T01:48:54.060Z,1.20
2023-05-06T01:51:24.492Z,1.00
2023-05-06T01:56:27.254Z,0.82
2023-05-06T01:58:55.870Z,1.13
2023-05-06T02:01:24.474Z,1.05
2023-05-06T02:06:21.457Z,1.13
2023-05-06T02:08:50.557Z,1.15
2023-05-06T02:11:23.999Z,1.00
2023-05-06T02:13:55.180Z,1.02
2023-05-06T02:18:51.963Z,1.48
2023-05-06T02:21:20.514Z,1.52
2023-05-06T02:23:49.012Z,1.13
2023-05-06T02:26:17.819Z,1.30
2023-05-06T02:31:16.722Z,1.30
2023-05-06T02:33:46.685Z,1.20
2023-05-06T02:36:15.189Z,1.25
2023-05-06T02:38:43.611Z,1.13
2023-05-06T02:41:12.115Z,0.90
2023-05-06T02:43:40.669Z,1.10
2023-05-06T02:46:11.606Z,1.67
2023-05-06T02:48:40.084Z,0.93
2023-05-06T02:51:09.737Z,1.13
2023-05-06T02:53:38.102Z,1.20
2023-05-06T02:56:07.461Z,1.30
2023-05-06T02:58:35.923Z,1.30
2023-05-06T03:01:04.509Z,1.13
2023-05-06T03:03:34.660Z,1.33
2023-05-06T03:06:03.430Z,1.10
2023-05-06T03:08:32.328Z,1.08
2023-05-06T03:11:00.802Z,0.80
2023-05-06T03:13:29.299Z,1.60
2023-05-06T03:18:26.295Z,1.20
2023-05-06T03:20:56.150Z,1.00
2023-05-06T03:23:24.766Z,1.30
2023-05-06T03:25:57.935Z,1.17
2023-05-06T03:28:26.763Z,1.00
2023-05-06T03:30:55.759Z,1.13
2023-05-06T03:33:24.374Z,0.93
2023-05-06T03:35:52.811Z,0.98
2023-05-06T03:38:23.361Z,1.02
2023-05-06T03:40:58.874Z,1.00
2023-05-06T03:43:31.863Z,0.85
2023-05-06T03:46:06.380Z,1.30
2023-05-06T03:48:37.479Z,1.15
2023-05-06T03:51:13.388Z,1.00
2023-05-06T03:53:43.817Z,1.20
2023-05-06T03:56:12.526Z,0.63
2023-05-06T03:58:40.953Z,1.00
2023-05-06T04:01:17.017Z,1.00
2023-05-06T04:03:46.051Z,1.20
2023-05-06T04:06:14.992Z,1.08
2023-05-06T04:08:45.681Z,1.23
2023-05-06T04:11:14.768Z,1.10
2023-05-06T04:16:16.325Z,1.00
2023-05-06T04:18:46.299Z,0.82
2023-05-06T04:21:18.643Z,1.10
2023-05-06T04:23:56.001Z,0.80
2023-05-06T04:26:33.202Z,0.90
2023-05-06T04:29:03.396Z,0.98
2023-05-06T04:31:34.732Z,0.90
2023-05-06T04:34:06.225Z,0.90
2023-05-06T04:36:35.396Z,0.70
2023-05-06T04:39:28.861Z,0.70
2023-05-06T04:41:59.621Z,0.60
2023-05-06T04:44:36.609Z,0.90
2023-05-06T04:47:09.130Z,0.98
2023-05-06T04:49:38.912Z,1.10
2023-05-06T04:52:08.527Z,0.70
2023-05-06T04:54:38.503Z,1.00
2023-05-06T04:57:08.919Z,0.60
2023-05-06T04:59:38.674Z,0.60
2023-05-06T05:02:07.152Z,0.85
2023-05-06T05:04:35.782Z,0.60
2023-05-06T05:07:04.612Z,0.70
2023-05-06T05:09:34.103Z,0.80
2023-05-06T05:12:05.375Z,0.73
2023-05-06T05:14:37.470Z,0.77
2023-05-06T05:17:06.999Z,0.70
2023-05-06T05:19:36.069Z,0.70
2023-05-06T05:22:04.890Z,1.10
2023-05-06T05:24:34.988Z,0.70
2023-05-06T05:27:04.863Z,1.20
2023-05-06T05:29:33.861Z,0.80
2023-05-06T05:32:04.889Z,0.80
2023-05-06T05:34:33.508Z,0.50
2023-05-06T05:37:06.244Z,0.85
2023-05-06T05:39:35.593Z,0.82
2023-05-06T05:42:05.816Z,0.88
2023-05-06T05:44:36.352Z,0.50
2023-05-06T05:47:06.737Z,0.90
2023-05-06T05:49:36.782Z,1.23
2023-05-06T05:52:07.364Z,0.90
2023-05-06T05:54:36.217Z,1.08
2023-05-06T05:59:34.384Z,0.93
2023-05-06T06:02:05.992Z,0.80
2023-05-06T06:07:03.026Z,0.90
2023-05-06T06:09:35.807Z,0.68
2023-05-06T06:12:07.587Z,0.70
2023-05-06T06:14:40.210Z,0.88
2023-05-06T06:17:11.488Z,0.82
2023-05-06T06:19:40.044Z,0.63
2023-05-06T06:22:08.722Z,0.70
2023-05-06T06:24:37.761Z,0.70
2023-05-06T06:27:07.689Z,0.60
2023-05-06T06:29:37.139Z,0.73
2023-05-06T06:32:06.102Z,0.80
2023-05-06T06:34:34.548Z,0.55
2023-05-06T06:37:05.326Z,0.63
2023-05-06T06:39:34.711Z,0.70
2023-05-06T06:42:04.466Z,1.10
2023-05-06T06:44:41.028Z,0.68
2023-05-06T06:47:09.556Z,0.80
2023-05-06T06:49:38.676Z,0.65
2023-05-06T06:52:07.168Z,0.80
2023-05-06T06:54:35.675Z,0.80
2023-05-06T06:57:07.002Z,0.80
2023-05-06T06:59:35.558Z,0.70
2023-05-06T07:02:05.633Z,0.80
2023-05-06T07:04:34.157Z,0.80
2023-05-06T07:07:02.570Z,0.70
2023-05-06T07:09:30.984Z,0.77
2023-05-06T07:11:59.628Z,0.63
2023-05-06T07:14:27.964Z,0.60
2023-05-06T07:16:56.411Z,0.70
2023-05-06T07:19:26.398Z,0.88
2023-05-06T07:21:55.049Z,0.90
2023-05-06T07:24:23.643Z,0.90
2023-05-06T07:26:52.155Z,0.80
2023-05-06T07:29:21.722Z,0.68
2023-05-06T07:31:50.101Z,0.90
2023-05-06T07:34:18.697Z,1.15
2023-05-06T07:36:48.693Z,0.68
2023-05-06T07:39:17.233Z,0.82
2023-05-06T07:41:45.741Z,1.00
2023-05-06T07:44:14.197Z,0.55
2023-05-06T07:46:42.768Z,0.63
2023-05-06T07:49:11.416Z,0.80
2023-05-06T07:51:39.896Z,1.10
2023-05-06T07:54:09.801Z,0.80
2023-05-06T07:56:38.280Z,0.70
2023-05-06T07:59:06.750Z,0.85
2023-05-06T08:01:37.809Z,0.70
2023-05-06T08:04:07.588Z,0.82
2023-05-06T08:06:36.183Z,0.90
2023-05-06T08:09:04.805Z,0.65
2023-05-06T08:11:34.667Z,1.00
2023-05-06T08:14:03.397Z,0.68
2023-05-06T08:16:34.275Z,0.80
2023-05-06T08:19:02.853Z,0.80
2023-05-06T08:21:31.344Z,0.80
2023-05-06T08:23:59.946Z,0.85
2023-05-06T08:26:28.396Z,1.20
2023-05-06T08:28:59.583Z,0.70
2023-05-06T08:31:28.125Z,0.68
2023-05-06T08:33:56.637Z,1.00
2023-05-06T08:36:25.128Z,0.80
2023-05-06T08:38:53.768Z,0.80
2023-05-06T08:41:23.082Z,0.90
2023-05-06T08:43:52.153Z,1.02
2023-05-06T08:46:22.976Z,0.90
2023-05-06T08:48:51.626Z,0.90
2023-05-06T08:51:23.697Z,0.70
2023-05-06T08:53:53.870Z,0.70
2023-05-06T08:56:26.187Z,0.73
2023-05-06T08:58:55.756Z,0.90
2023-05-06T09:01:26.754Z,0.90
2023-05-06T09:03:55.527Z,0.60
2023-05-06T09:06:25.158Z,1.02
2023-05-06T09:08:53.658Z,0.80
2023-05-06T09:11:23.917Z,0.70
2023-05-06T09:13:53.006Z,0.70
2023-05-06T09:16:32.495Z,0.60
2023-05-06T09:19:01.056Z,0.77
2023-05-06T09:21:36.166Z,0.68
2023-05-06T09:24:06.167Z,0.90
2023-05-06T09:26:36.183Z,0.70
2023-05-06T09:29:05.602Z,1.00
2023-05-06T09:31:42.777Z,0.75
2023-05-06T09:34:11.903Z,1.10
2023-05-06T09:36:40.725Z,0.70
2023-05-06T09:41:39.185Z,0.90
2023-05-06T09:46:38.206Z,1.00
2023-05-06T09:49:07.650Z,0.80
2023-05-06T09:51:36.157Z,0.90
2023-05-06T09:54:06.080Z,0.73
2023-05-06T09:56:35.632Z,1.10
2023-05-06T09:59:05.469Z,1.05
2023-05-06T10:01:37.551Z,1.10
2023-05-06T10:04:11.099Z,0.70
2023-05-06T10:06:42.208Z,0.50
2023-05-06T10:09:11.680Z,0.95
2023-05-06T10:11:40.718Z,0.90
2023-05-06T10:14:10.003Z,0.98
2023-05-06T10:16:41.066Z,0.95
2023-05-06T10:19:10.614Z,1.00
2023-05-06T10:21:43.008Z,1.00
2023-05-06T10:24:14.751Z,0.98
2023-05-06T10:26:46.818Z,1.10
2023-05-06T10:29:15.405Z,0.88
2023-05-06T10:31:54.332Z,0.70
2023-05-06T10:34:23.971Z,0.75
2023-05-06T10:36:57.966Z,0.80
2023-05-06T10:39:27.432Z,0.57
2023-05-06T10:41:56.113Z,0.77
2023-05-06T10:44:59.616Z,0.80
2023-05-06T10:47:29.574Z,1.08
2023-05-06T10:50:20.261Z,0.90
2023-05-06T10:52:49.893Z,0.80
2023-05-06T10:55:29.386Z,0.73
2023-05-06T10:57:58.843Z,0.80
2023-05-06T11:00:27.574Z,0.70
2023-05-06T11:03:03.301Z,0.98
2023-05-06T11:05:31.987Z,0.88
2023-05-06T11:08:11.436Z,0.70
2023-05-06T11:10:39.912Z,0.70
2023-05-06T11:13:29.912Z,0.88
2023-05-06T11:16:00.317Z,0.85
2023-05-06T11:18:45.491Z,1.00
2023-05-06T11:21:41.706Z,1.52
2023-05-06T11:24:12.175Z,0.70
2023-05-06T11:26:44.380Z,0.70
2023-05-06T11:29:12.878Z,1.00
2023-05-06T11:31:43.098Z,1.10
2023-05-06T11:34:15.433Z,0.80
2023-05-06T11:36:52.546Z,1.05
2023-05-06T11:39:21.154Z,0.73
2023-05-06T11:41:49.561Z,0.82
2023-05-06T11:44:28.302Z,0.80
2023-05-06T11:49:30.211Z,0.50
2023-05-06T11:51:58.608Z,0.63
2023-05-06T11:54:28.313Z,0.70
2023-05-06T11:56:58.118Z,0.50
2023-05-06T11:59:31.773Z,0.63
2023-05-06T12:02:01.986Z,0.70
2023-05-06T12:04:38.723Z,0.82
2023-05-06T12:07:08.071Z,1.00
2023-05-06T12:09:37.323Z,1.00
2023-05-06T12:12:06.910Z,1.48
2023-05-06T12:14:36.648Z,0.80
2023-05-06T12:17:05.529Z,0.90
2023-05-06T12:22:18.175Z,0.70
2023-05-06T12:24:46.981Z,1.10
2023-05-06T12:27:15.901Z,0.80
2023-05-06T12:29:53.953Z,0.60
2023-05-06T12:32:22.499Z,0.75
2023-05-06T12:34:52.354Z,0.80
2023-05-06T12:37:29.220Z,0.60
2023-05-06T12:40:08.429Z,0.60
2023-05-06T12:42:37.023Z,0.73
2023-05-06T12:45:15.968Z,0.85
2023-05-06T12:47:54.156Z,0.75
2023-05-06T12:50:35.155Z,0.82
2023-05-06T12:53:03.923Z,1.00
2023-05-06T12:55:32.812Z,0.82
2023-05-06T12:58:01.572Z,1.00
2023-05-06T13:00:30.080Z,1.10
2023-05-06T13:02:58.494Z,1.20
2023-05-06T13:05:27.167Z,1.13
2023-05-06T13:07:56.973Z,0.70
2023-05-06T13:10:25.786Z,0.93
2023-05-06T13:12:54.210Z,1.05
2023-05-06T13:15:22.679Z,1.13
2023-05-06T13:17:51.472Z,1.17
2023-05-06T13:22:54.214Z,1.00
2023-05-06T13:25:25.010Z,0.90
2023-05-06T13:27:54.221Z,1.10
2023-05-06T13:30:22.788Z,0.90
2023-05-06T13:32:54.016Z,0.80
2023-05-06T13:35:22.665Z,1.17
2023-05-06T13:37:51.005Z,1.17
2023-05-06T13:40:21.889Z,1.65
2023-05-06T13:42:51.781Z,1.55
2023-05-06T13:45:20.459Z,1.58
2023-05-06T13:47:48.997Z,0.93
2023-05-06T13:50:17.699Z,0.80
2023-05-06T13:52:46.070Z,0.93
2023-05-06T13:55:14.553Z,1.08
2023-05-06T13:57:43.019Z,0.90
2023-05-06T14:00:16.810Z,1.10
2023-05-06T14:02:45.413Z,1.52
2023-05-06T14:05:23.656Z,1.60
2023-05-06T14:07:53.617Z,1.30
2023-05-06T14:10:28.952Z,0.77
2023-05-06T14:13:00.031Z,1.33
2023-05-06T14:15:29.808Z,0.80
2023-05-06T14:17:59.135Z,1.13
2023-05-06T14:20:27.600Z,1.20
2023-05-06T14:22:56.051Z,1.77
2023-05-06T14:25:27.769Z,1.02
2023-05-06T14:27:56.664Z,1.02
2023-05-06T14:30:26.322Z,1.33
2023-05-06T14:32:56.330Z,1.20
2023-05-06T14:35:24.897Z,1.02
2023-05-06T14:37:53.441Z,1.10
2023-05-06T14:40:21.953Z,1.20
2023-05-06T14:42:50.394Z,0.88
2023-05-06T14:45:18.950Z,0.90
2023-05-06T14:47:47.475Z,1.00
2023-05-06T14:50:17.465Z,0.70
2023-05-06T14:52:46.282Z,0.80
2023-05-06T14:55:15.029Z,0.70
2023-05-06T14:57:43.415Z,0.60
2023-05-06T15:00:14.993Z,1.20
2023-05-06T15:02:43.671Z,0.98
2023-05-06T15:05:13.370Z,0.93
2023-05-06T15:07:43.628Z,1.70
2023-05-06T15:10:12.578Z,0.80
2023-05-06T15:15:10.781Z,1.30
2023-05-06T15:17:41.423Z,1.05
2023-05-06T15:20:10.914Z,1.38
2023-05-06T15:22:39.659Z,1.70
2023-05-06T15:25:16.811Z,1.02
2023-05-06T15:27:54.910Z,0.90
2023-05-06T15:30:23.434Z,1.27
2023-05-06T15:32:51.877Z,1.40
2023-05-06T15:35:20.457Z,1.10
2023-05-06T15:37:48.933Z,1.00
2023-05-06T15:40:18.798Z,1.25
2023-05-06T15:42:48.507Z,1.45
2023-05-06T15:45:16.952Z,1.40
2023-05-06T15:47:45.461Z,1.38
2023-05-06T15:50:25.215Z,1.10
2023-05-06T15:53:01.290Z,1.50
2023-05-06T15:55:35.288Z,1.50
2023-05-06T15:58:09.950Z,0.85
2023-05-06T16:00:38.537Z,0.93
2023-05-06T16:03:09.729Z,1.55
2023-05-06T16:05:40.575Z,1.45
2023-05-06T16:08:09.068Z,1.23
2023-05-06T16:10:38.961Z,1.30
2023-05-06T16:13:07.547Z,1.50
2023-05-06T16:15:36.346Z,1.17
2023-05-06T16:18:05.130Z,0.88
2023-05-06T16:23:01.871Z,1.38
2023-05-06T16:25:30.518Z,1.25
2023-05-06T16:30:28.701Z,1.02
2023-05-06T16:32:57.203Z,0.98
2023-05-06T16:35:26.010Z,1.02
2023-05-06T16:37:54.432Z,1.60
2023-05-06T16:40:23.030Z,1.48
2023-05-06T16:42:51.471Z,1.85
2023-05-06T16:45:21.552Z,1.95
2023-05-06T16:47:50.243Z,1.65
2023-05-06T16:50:18.976Z,1.70
2023-05-06T16:55:16.086Z,1.70
2023-05-06T17:00:13.892Z,1.10
2023-05-06T17:02:44.175Z,2.00
2023-05-06T17:05:12.708Z,1.20
2023-05-06T17:07:41.189Z,1.67
2023-05-06T17:10:10.523Z,1.50
2023-05-06T17:12:39.760Z,1.00
2023-05-06T17:15:09.779Z,1.25
2023-05-06T17:17:38.313Z,1.50
2023-05-06T17:20:10.045Z,1.40
2023-05-06T17:22:38.958Z,0.95
2023-05-06T17:25:08.983Z,1.35
2023-05-06T17:27:37.501Z,1.17
2023-05-06T17:30:06.956Z,1.40
2023-05-06T17:32:35.601Z,1.20
2023-05-06T17:35:04.152Z,1.75
2023-05-06T17:40:03.433Z,1.13
2023-05-06T17:42:33.016Z,1.08
2023-05-06T17:45:01.415Z,1.23
2023-05-06T17:47:32.422Z,1.40
2023-05-06T17:50:00.828Z,1.10
2023-05-06T17:52:29.374Z,1.60
2023-05-06T17:55:14.878Z,1.80
2023-05-06T17:57:45.263Z,1.60
2023-05-06T18:00:16.630Z,1.50
2023-05-06T18:02:45.822Z,1.10
2023-05-06T18:05:14.550Z,0.90
2023-05-06T18:10:13.186Z,1.40
2023-05-06T18:12:41.868Z,1.38
2023-05-06T18:15:11.590Z,1.50
2023-05-06T18:17:40.755Z,1.75
2023-05-06T18:20:11.614Z,1.85
2023-05-06T18:22:40.337Z,2.20
2023-05-06T18:25:10.965Z,2.47
2023-05-06T18:27:41.302Z,1.95
2023-05-06T18:30:10.408Z,1.50
2023-05-06T18:32:39.175Z,2.00
2023-05-06T18:35:08.658Z,1.95
2023-05-06T18:37:37.393Z,1.55
2023-05-06T18:40:09.255Z,2.22
2023-05-06T18:42:38.013Z,2.13
2023-05-06T18:47:40.299Z,1.45
2023-05-06T18:50:10.133Z,1.95
2023-05-06T18:52:39.981Z,1.38
2023-05-06T18:55:10.145Z,1.80
2023-05-06T18:57:40.081Z,2.38
2023-05-06T19:00:11.244Z,2.67
2023-05-06T19:02:40.059Z,1.92
2023-05-06T19:05:13.063Z,2.33
2023-05-06T19:07:42.218Z,2.55
2023-05-06T19:10:11.468Z,2.60
2023-05-06T19:12:40.016Z,2.70
2023-05-06T19:15:12.692Z,2.83
2023-05-06T19:17:43.489Z,2.60
2023-05-06T19:20:14.502Z,3.05
2023-05-06T19:22:44.513Z,3.10
2023-05-06T19:25:13.433Z,2.63
2023-05-06T19:27:41.855Z,3.55
2023-05-06T19:30:12.692Z,3.90
2023-05-06T19:32:41.213Z,3.08
2023-05-06T19:35:11.279Z,3.45
2023-05-06T19:37:40.068Z,3.35
2023-05-06T19:40:09.658Z,3.97
2023-05-06T19:42:38.044Z,3.75
2023-05-06T19:45:09.563Z,3.83
2023-05-06T19:47:44.949Z,3.78
2023-05-06T19:50:13.799Z,6.10
2023-05-06T19:55:12.003Z,3.25
2023-05-06T19:57:41.765Z,3.30
2023-05-06T20:00:12.404Z,3.60
2023-05-06T20:02:42.525Z,2.90
2023-05-06T20:05:11.784Z,3.03
2023-05-06T20:07:41.356Z,3.53
2023-05-06T20:10:13.685Z,3.35
2023-05-06T20:12:42.496Z,2.95
2023-05-06T20:17:41.665Z,2.70
2023-05-06T20:20:11.853Z,2.83
2023-05-06T20:22:41.114Z,2.25
2023-05-06T20:25:11.903Z,2.33
2023-05-06T20:27:40.641Z,2.40
2023-05-06T20:30:10.099Z,2.53
2023-05-06T20:32:39.196Z,2.60
2023-05-06T20:35:10.147Z,3.03
2023-05-06T20:37:44.200Z,2.47
2023-05-06T20:40:13.707Z,2.38
2023-05-06T20:42:42.215Z,3.25
2023-05-06T20:45:11.481Z,1.95
2023-05-06T20:47:40.159Z,2.13
2023-05-06T20:50:17.018Z,2.17
2023-05-06T20:52:46.156Z,2.53
2023-05-06T20:57:45.404Z,3.15
2023-05-06T21:00:14.824Z,2.47
2023-05-06T21:02:43.370Z,2.53
2023-05-06T21:05:13.572Z,1.90
2023-05-06T21:07:42.489Z,3.15
2023-05-06T21:10:12.036Z,2.70
2023-05-06T21:12:40.590Z,2.33
2023-05-06T21:15:10.350Z,2.85
2023-05-06T21:17:39.188Z,3.13
2023-05-06T21:22:37.942Z,2.65
2023-05-06T21:25:07.611Z,2.60
2023-05-06T21:27:38.729Z,2.45
2023-05-06T21:30:08.980Z,3.00
2023-05-06T21:32:37.676Z,2.63
2023-05-06T21:37:35.758Z,2.50
2023-05-06T21:40:10.265Z,3.17
2023-05-06T21:42:38.774Z,3.58
2023-05-06T21:45:09.117Z,3.08
2023-05-06T21:47:37.923Z,2.95
2023-05-06T21:50:07.371Z,1.88
2023-05-06T21:52:37.054Z,3.65
2023-05-06T21:55:06.371Z,3.03
2023-05-06T21:57:39.118Z,2.85
2023-05-06T22:00:12.309Z,3.45
2023-05-06T22:02:41.470Z,3.67
2023-05-06T22:05:10.562Z,2.88
2023-05-06T22:07:39.487Z,2.70
2023-05-06T22:10:08.935Z,3.30
2023-05-06T22:12:39.015Z,3.30
2023-05-06T22:15:08.961Z,3.10
2023-05-06T22:17:38.298Z,3.13
2023-05-06T22:20:11.141Z,2.65
2023-05-06T22:22:39.842Z,3.47
2023-05-06T22:25:09.417Z,2.90
2023-05-06T22:27:39.632Z,3.38
2023-05-06T22:30:09.822Z,2.47
2023-05-06T22:32:38.515Z,2.65
2023-05-06T22:37:35.592Z,2.05
2023-05-06T22:40:04.361Z,2.53
2023-05-06T22:42:32.942Z,2.80
2023-05-06T22:45:03.192Z,2.40
2023-05-06T22:47:32.223Z,2.88
2023-05-06T22:50:00.623Z,2.65
2023-05-06T22:52:29.299Z,2.55
2023-05-06T22:57:26.113Z,3.08
2023-05-06T23:02:24.318Z,2.25
2023-05-06T23:04:52.796Z,3.20
2023-05-06T23:07:21.153Z,3.03
2023-05-06T23:09:49.585Z,3.40
2023-05-06T23:12:18.004Z,2.63
2023-05-06T23:14:46.381Z,2.95
2023-05-06T23:17:14.820Z,2.72
2023-05-06T23:19:45.939Z,3.33
2023-05-06T23:22:14.533Z,2.60
2023-05-06T23:24:42.991Z,3.05
2023-05-06T23:27:11.795Z,2.22
2023-05-06T23:29:40.275Z,3.03
2023-05-06T23:32:08.762Z,3.05
2023-05-06T23:34:37.261Z,2.35
2023-05-06T23:37:07.197Z,2.15
2023-05-06T23:39:35.697Z,2.67
2023-05-06T23:42:04.103Z,3.65
2023-05-06T23:44:32.530Z,2.78
2023-05-06T23:47:00.875Z,2.70
2023-05-06T23:49:29.262Z,2.25
2023-05-06T23:51:57.784Z,2.67
2023-05-06T23:54:27.642Z,2.72
2023-05-06T23:56:56.530Z,2.80
2023-05-06T23:59:24.909Z,2.78
